Time;durP1;ratioP1;P1;durP2;ratioP2;P2;SDS_P1;SDS_P2;PMS_P1;PMS_P2;Temp;Humidity;BMP_temperature;BMP_pressure;BME280_temperature;BME280_humidity;BME280_pressure;Samples;Min_cycle;Max_cycle;Signal;HPM_P1;HPM_P2
2023/07/12 00:00:53;;;;;;;6.47;3.80;;;20.20;85.70;;;;;;5000781;28;20085;-72
2023/07/12 00:03:18;;;;;;;8.52;3.95;;;20.00;86.10;;;;;;5006416;28;20045;-72
2023/07/12 00:05:46;;;;;;;11.48;4.60;;;20.00;86.50;;;;;;5002651;28;20075;-73
2023/07/12 00:08:20;;;;;;;12.65;5.18;;;20.00;89.00;;;;;;5001877;28;20057;-73
2023/07/12 00:10:47;;;;;;;9.98;5.00;;;19.90;88.10;;;;;;5004479;28;20442;-72
2023/07/12 00:13:13;;;;;;;11.93;5.68;;;19.70;89.50;;;;;;5003551;28;20119;-72
2023/07/12 00:15:40;;;;;;;9.77;6.03;;;19.60;89.20;;;;;;5001855;28;20034;-72
2023/07/12 00:18:14;;;;;;;15.48;5.90;;;19.60;89.10;;;;;;5000790;28;20026;-72
2023/07/12 00:20:40;;;;;;;12.90;6.95;;;19.50;89.20;;;;;;5000981;28;20085;-73
2023/07/12 00:23:14;;;;;;;11.15;6.07;;;19.40;89.40;;;;;;5004634;28;20052;-71
2023/07/12 00:25:41;;;;;;;15.45;5.88;;;19.40;89.00;;;;;;5005256;28;20034;-71
2023/07/12 00:28:24;;;;;;;14.13;5.72;;;19.30;89.40;;;;;;5006305;28;20041;-74
2023/07/12 00:30:54;;;;;;;8.60;4.78;;;19.20;89.60;;;;;;5002564;28;20037;-74
2023/07/12 00:33:20;;;;;;;13.00;4.93;;;19.30;89.60;;;;;;5011274;28;20453;-73
2023/07/12 00:35:46;;;;;;;9.82;4.95;;;19.20;89.70;;;;;;5004944;28;20033;-75
2023/07/12 00:38:18;;;;;;;11.18;5.03;;;19.20;89.80;;;;;;5007473;28;20076;-72
2023/07/12 00:40:53;;;;;;;9.82;4.35;;;19.20;89.60;;;;;;5006449;28;20063;-72
2023/07/12 00:43:24;;;;;;;14.20;4.18;;;19.30;89.80;;;;;;5004588;28;20348;-73
2023/07/12 00:45:51;;;;;;;10.98;4.68;;;19.20;90.00;;;;;;5001803;28;20033;-73
2023/07/12 00:48:17;;;;;;;7.63;4.03;;;19.20;90.30;;;;;;4999704;28;20054;-72
2023/07/12 00:50:43;;;;;;;8.45;4.15;;;19.20;89.80;;;;;;5004319;28;20088;-72
2023/07/12 00:53:14;;;;;;;7.50;3.92;;;19.20;89.80;;;;;;5005518;28;20057;-72
2023/07/12 00:56:01;;;;;;;7.38;3.83;;;19.20;89.60;;;;;;5014349;28;20070;-73
2023/07/12 00:58:45;;;;;;;9.63;3.67;;;19.10;89.90;;;;;;5002513;28;20022;-73
2023/07/12 01:01:12;;;;;;;9.55;4.15;;;19.00;89.90;;;;;;5008243;28;20037;-75
2023/07/12 01:03:40;;;;;;;10.75;3.95;;;19.00;89.60;;;;;;4998697;28;20042;-72
2023/07/12 01:06:09;;;;;;;11.07;4.40;;;19.00;89.40;;;;;;5002286;28;20034;-72
2023/07/12 01:08:36;;;;;;;9.38;4.35;;;19.00;89.50;;;;;;5003980;28;20455;-73
2023/07/12 01:11:03;;;;;;;8.93;4.20;;;19.00;89.60;;;;;;5002437;28;20373;-72
2023/07/12 01:13:30;;;;;;;9.15;4.13;;;19.10;89.00;;;;;;5006939;28;20029;-72
2023/07/12 01:15:59;;;;;;;5.80;3.67;;;19.30;88.40;;;;;;5006847;28;20160;-72
2023/07/12 01:18:25;;;;;;;7.97;3.83;;;19.30;89.00;;;;;;5008188;28;20050;-72
2023/07/12 01:21:14;;;;;;;9.45;4.43;;;19.10;90.10;;;;;;5006841;28;20087;-74
2023/07/12 01:23:41;;;;;;;9.05;4.22;;;19.10;90.50;;;;;;5001323;28;20120;-73
2023/07/12 01:26:33;;;;;;;7.72;4.25;;;19.00;90.80;;;;;;5007018;28;20064;-72
2023/07/12 01:29:00;;;;;;;9.40;4.05;;;18.90;91.30;;;;;;5005570;28;20030;-73
2023/07/12 01:31:27;;;;;;;7.40;3.75;;;18.90;91.50;;;;;;5009978;28;20120;-73
2023/07/12 01:33:53;;;;;;;9.48;3.78;;;18.80;91.70;;;;;;5008774;28;20369;-73
2023/07/12 01:36:21;;;;;;;8.70;3.85;;;18.80;91.60;;;;;;5008236;28;20434;-72
2023/07/12 01:38:49;;;;;;;8.10;3.50;;;18.80;91.40;;;;;;5005499;28;20056;-74
2023/07/12 01:41:14;;;;;;;8.55;3.45;;;18.80;91.30;;;;;;5010119;28;20105;-73
2023/07/12 01:43:40;;;;;;;6.63;3.80;;;18.80;91.10;;;;;;5017858;28;20408;-73
2023/07/12 01:46:06;;;;;;;8.02;3.05;;;18.80;91.10;;;;;;5005614;28;20205;-73
2023/07/12 01:48:32;;;;;;;4.85;2.45;;;18.90;91.00;;;;;;5007098;28;20105;-73
2023/07/12 01:50:59;;;;;;;5.55;2.22;;;18.90;90.90;;;;;;5010216;28;20109;-73
2023/07/12 01:53:25;;;;;;;4.00;2.00;;;18.90;90.70;;;;;;5007884;28;20025;-73
2023/07/12 01:55:51;;;;;;;7.38;2.00;;;18.90;90.40;;;;;;5004683;28;20046;-73
2023/07/12 01:58:16;;;;;;;2.40;1.40;;;18.90;90.40;;;;;;5008261;28;20069;-73
2023/07/12 02:00:42;;;;;;;3.88;1.60;;;18.90;90.40;;;;;;5004192;28;20057;-72
2023/07/12 02:03:08;;;;;;;4.63;1.30;;;18.90;90.40;;;;;;5010385;28;20045;-73
2023/07/12 02:05:33;;;;;;;2.95;1.40;;;18.90;90.30;;;;;;5005321;28;20042;-72
2023/07/12 02:07:59;;;;;;;1.77;1.08;;;18.90;90.20;;;;;;5011771;28;20052;-72
2023/07/12 02:10:25;;;;;;;4.43;1.20;;;18.90;90.20;;;;;;5010827;28;20489;-74
2023/07/12 02:12:51;;;;;;;2.95;1.15;;;18.80;90.50;;;;;;5005504;28;20041;-72
2023/07/12 02:15:16;;;;;;;4.07;1.50;;;18.90;90.40;;;;;;5009231;28;20442;-73
2023/07/12 02:17:42;;;;;;;2.75;1.23;;;19.00;90.40;;;;;;5009422;28;20108;-72
2023/07/12 02:20:10;;;;;;;2.85;1.25;;;18.90;90.50;;;;;;5009183;28;20073;-72
2023/07/12 02:22:37;;;;;;;3.55;1.33;;;18.90;90.70;;;;;;5003719;28;20138;-73
2023/07/12 02:25:04;;;;;;;1.77;1.00;;;18.90;91.10;;;;;;5005977;28;20163;-75
2023/07/12 02:27:30;;;;;;;3.33;1.20;;;18.80;91.90;;;;;;4998964;28;20022;-72
2023/07/12 02:29:55;;;;;;;3.60;1.20;;;18.70;92.00;;;;;;4999554;28;20366;-72
2023/07/12 02:32:22;;;;;;;3.65;1.27;;;18.60;92.60;;;;;;5016781;28;20037;-73
2023/07/12 02:34:48;;;;;;;3.92;1.05;;;18.60;92.90;;;;;;5005562;28;20074;-72
2023/07/12 02:37:14;;;;;;;3.58;1.33;;;18.60;93.00;;;;;;5019351;28;20115;-75
2023/07/12 02:39:40;;;;;;;5.05;1.60;;;18.50;93.50;;;;;;5008081;28;20160;-74
2023/07/12 02:42:06;;;;;;;3.83;1.17;;;18.50;93.30;;;;;;5006280;28;20073;-72
2023/07/12 02:44:32;;;;;;;2.47;1.33;;;18.50;93.40;;;;;;5006750;28;20440;-72
2023/07/12 02:46:57;;;;;;;1.80;1.25;;;18.50;93.60;;;;;;5005081;28;20101;-72
2023/07/12 02:49:23;;;;;;;4.40;1.50;;;18.50;93.60;;;;;;5009219;28;20049;-72
2023/07/12 02:51:48;;;;;;;3.65;1.67;;;18.40;94.00;;;;;;5004877;28;20351;-72
2023/07/12 02:54:14;;;;;;;2.92;1.50;;;18.40;94.20;;;;;;5003087;28;20033;-72
2023/07/12 02:56:39;;;;;;;4.43;1.63;;;18.50;94.90;;;;;;5005200;28;20137;-73
2023/07/12 02:59:05;;;;;;;4.28;1.80;;;18.50;95.20;;;;;;5005707;28;20025;-72
2023/07/12 03:01:32;;;;;;;2.55;1.55;;;18.40;95.30;;;;;;5002893;28;20366;-72
2023/07/12 03:03:57;;;;;;;2.72;1.65;;;18.40;95.50;;;;;;5004526;28;20029;-73
2023/07/12 03:06:23;;;;;;;4.72;2.03;;;18.30;95.40;;;;;;5000445;28;20042;-73
2023/07/12 03:08:49;;;;;;;5.10;1.95;;;18.30;95.70;;;;;;5007576;28;20533;-73
2023/07/12 03:11:15;;;;;;;4.53;1.92;;;18.30;96.10;;;;;;5012895;28;20101;-73
2023/07/12 03:13:40;;;;;;;5.00;1.83;;;18.20;96.10;;;;;;5005412;28;20400;-74
2023/07/12 03:16:07;;;;;;;4.25;1.60;;;18.20;96.50;;;;;;5005769;28;20112;-74
2023/07/12 03:18:33;;;;;;;2.70;1.65;;;18.20;96.50;;;;;;5009240;28;20053;-73
2023/07/12 03:21:04;;;;;;;2.67;1.60;;;18.10;96.50;;;;;;5005401;28;20036;-73
2023/07/12 03:23:31;;;;;;;5.93;2.05;;;18.10;96.50;;;;;;4996395;28;20042;-73
2023/07/12 03:25:56;;;;;;;4.93;1.77;;;18.10;96.70;;;;;;4999522;28;20040;-73
2023/07/12 03:28:22;;;;;;;3.67;1.58;;;18.00;96.60;;;;;;5015369;28;20030;-73
2023/07/12 03:31:02;;;;;;;4.10;1.90;;;18.10;96.70;;;;;;5004577;28;20072;-73
2023/07/12 03:33:29;;;;;;;3.03;1.75;;;18.10;96.80;;;;;;5008175;28;20034;-73
2023/07/12 03:35:56;;;;;;;3.80;1.60;;;18.00;97.00;;;;;;5000867;28;20042;-73
2023/07/12 03:38:25;;;;;;;9.30;1.63;;;18.00;97.00;;;;;;5004897;28;20037;-76
2023/07/12 03:40:51;;;;;;;1.63;1.30;;;18.10;97.00;;;;;;5003847;28;20030;-75
2023/07/12 03:43:17;;;;;;;5.03;1.73;;;18.00;96.80;;;;;;5005442;28;20057;-73
2023/07/12 03:45:43;;;;;;;5.28;2.45;;;18.00;96.80;;;;;;5003550;28;20084;-74
2023/07/12 03:48:09;;;;;;;3.65;1.90;;;18.00;96.90;;;;;;5005826;28;20025;-73
2023/07/12 03:50:38;;;;;;;2.33;1.70;;;18.00;97.20;;;;;;5006162;28;20417;-73
2023/07/12 03:53:03;;;;;;;4.93;1.90;;;18.00;97.30;;;;;;5002174;28;20030;-73
2023/07/12 03:55:29;;;;;;;3.65;1.85;;;18.00;97.20;;;;;;5001177;28;20089;-73
2023/07/12 03:57:54;;;;;;;4.90;2.17;;;17.80;97.20;;;;;;5000663;28;20444;-73
2023/07/12 04:00:20;;;;;;;4.10;2.35;;;17.80;97.30;;;;;;4998098;28;20041;-73
2023/07/12 04:02:45;;;;;;;2.53;1.85;;;17.70;97.40;;;;;;5004726;28;20037;-73
2023/07/12 04:05:11;;;;;;;3.05;2.03;;;17.70;97.60;;;;;;4998789;28;20108;-75
2023/07/12 04:07:36;;;;;;;5.63;2.38;;;17.70;97.60;;;;;;4996324;28;20420;-73
2023/07/12 04:10:02;;;;;;;4.10;2.33;;;17.70;97.60;;;;;;5003240;28;20149;-73
2023/07/12 04:12:27;;;;;;;5.03;2.75;;;17.60;97.80;;;;;;5007812;28;20156;-73
2023/07/12 04:14:54;;;;;;;7.25;3.10;;;17.60;97.90;;;;;;5001953;28;20363;-73
2023/07/12 04:17:19;;;;;;;5.22;3.00;;;17.60;98.00;;;;;;5002029;28;20164;-73
2023/07/12 04:19:45;;;;;;;6.68;3.20;;;17.60;98.10;;;;;;5003216;28;20053;-73
2023/07/12 04:22:10;;;;;;;6.82;2.97;;;17.60;98.20;;;;;;5001357;28;20097;-74
2023/07/12 04:24:35;;;;;;;6.43;3.30;;;17.60;98.20;;;;;;5002853;28;20068;-73
2023/07/12 04:27:01;;;;;;;6.40;3.50;;;17.60;98.10;;;;;;5005060;28;20018;-70
2023/07/12 04:29:27;;;;;;;6.07;3.45;;;17.60;98.20;;;;;;5007966;28;20064;-68
2023/07/12 04:31:52;;;;;;;7.85;3.58;;;17.60;98.20;;;;;;4999396;28;20072;-68
2023/07/12 04:34:18;;;;;;;8.40;3.30;;;17.60;98.30;;;;;;5000268;28;20080;-68
2023/07/12 04:36:43;;;;;;;5.43;3.30;;;17.70;98.30;;;;;;5004489;28;20689;-68
2023/07/12 04:39:09;;;;;;;5.65;3.28;;;17.60;98.40;;;;;;5002356;28;20330;-68
2023/07/12 04:41:34;;;;;;;6.55;3.92;;;17.70;98.50;;;;;;5002999;28;20407;-68
2023/07/12 04:44:01;;;;;;;6.50;4.05;;;17.70;98.60;;;;;;5007256;28;20450;-68
2023/07/12 04:46:27;;;;;;;6.40;4.18;;;17.70;98.50;;;;;;5016408;28;20175;-68
2023/07/12 04:48:53;;;;;;;7.85;4.35;;;17.70;98.40;;;;;;5004974;28;20042;-68
2023/07/12 04:51:19;;;;;;;8.65;4.88;;;17.80;98.50;;;;;;5007237;28;20026;-68
2023/07/12 04:53:47;;;;;;;9.77;4.65;;;17.80;98.40;;;;;;5005609;28;20037;-69
2023/07/12 04:56:16;;;;;;;8.68;4.82;;;17.80;98.40;;;;;;5006731;28;20105;-68
2023/07/12 04:58:43;;;;;;;9.25;4.07;;;17.70;98.40;;;;;;5006979;28;20080;-68
2023/07/12 05:01:09;;;;;;;8.18;5.20;;;17.80;98.50;;;;;;5005791;28;20235;-69
2023/07/12 05:03:35;;;;;;;8.70;5.20;;;17.90;98.40;;;;;;5004708;28;20079;-68
2023/07/12 05:06:01;;;;;;;8.63;4.72;;;17.90;98.50;;;;;;4999855;28;20038;-68
2023/07/12 05:08:26;;;;;;;8.40;4.93;;;17.90;98.40;;;;;;5011463;28;20030;-68
2023/07/12 05:10:57;;;;;;;7.00;4.95;;;17.90;98.40;;;;;;5007672;28;20056;-69
2023/07/12 05:13:22;;;;;;;9.68;5.68;;;17.90;98.40;;;;;;5007065;28;20041;-70
2023/07/12 05:15:52;;;;;;;9.45;5.70;;;17.90;98.50;;;;;;5005989;28;20026;-68
2023/07/12 05:18:18;;;;;;;12.77;7.15;;;17.90;98.50;;;;;;4999644;28;20057;-66
2023/07/12 05:20:44;;;;;;;10.18;6.32;;;18.00;98.50;;;;;;5001874;28;20559;-71
2023/07/12 05:23:10;;;;;;;10.98;7.22;;;18.00;98.40;;;;;;5004758;28;20026;-71
2023/07/12 05:25:35;;;;;;;9.52;6.68;;;18.00;98.40;;;;;;5002031;28;20033;-69
2023/07/12 05:28:02;;;;;;;9.75;5.65;;;18.00;98.50;;;;;;5011958;28;20030;-68
2023/07/12 05:30:30;;;;;;;6.95;5.60;;;18.00;98.20;;;;;;5006108;28;20121;-67
2023/07/12 05:32:56;;;;;;;7.07;5.80;;;18.00;98.20;;;;;;5002377;28;20025;-68
2023/07/12 05:35:22;;;;;;;6.97;5.35;;;18.00;98.20;;;;;;4999369;28;20046;-70
2023/07/12 05:37:49;;;;;;;10.27;5.95;;;18.00;98.20;;;;;;5006776;28;20041;-69
2023/07/12 05:40:15;;;;;;;11.55;5.68;;;18.10;97.90;;;;;;5007359;28;20034;-68
2023/07/12 05:42:41;;;;;;;9.73;5.32;;;18.20;97.90;;;;;;5006084;28;20041;-68
2023/07/12 05:45:09;;;;;;;8.85;5.35;;;18.20;97.60;;;;;;5006163;28;20505;-69
2023/07/12 05:47:34;;;;;;;7.07;5.20;;;18.20;97.30;;;;;;5003587;28;20026;-65
2023/07/12 05:50:00;;;;;;;8.35;4.68;;;18.30;97.30;;;;;;5006078;28;20029;-70
2023/07/12 05:52:27;;;;;;;5.90;4.70;;;18.40;97.30;;;;;;5006314;28;20427;-69
2023/07/12 05:54:53;;;;;;;7.70;4.15;;;18.60;96.90;;;;;;5009523;28;20025;-69
2023/07/12 05:57:19;;;;;;;7.22;4.07;;;18.70;96.40;;;;;;5004295;28;20053;-68
2023/07/12 05:59:45;;;;;;;5.57;3.53;;;18.80;96.20;;;;;;5002361;28;20229;-70
2023/07/12 06:02:14;;;;;;;6.72;3.55;;;19.00;95.90;;;;;;4998273;28;20132;-70
2023/07/12 06:04:40;;;;;;;5.85;2.85;;;18.90;95.60;;;;;;5011353;28;20078;-69
2023/07/12 06:07:06;;;;;;;5.88;2.70;;;18.90;95.50;;;;;;5005048;28;20144;-69
2023/07/12 06:09:31;;;;;;;5.55;3.03;;;18.70;95.00;;;;;;5006765;28;20120;-69
2023/07/12 06:11:56;;;;;;;5.68;2.60;;;18.70;95.30;;;;;;5006255;28;20064;-69
2023/07/12 06:14:22;;;;;;;5.72;2.45;;;18.60;95.10;;;;;;5002731;28;20113;-70
2023/07/12 06:16:47;;;;;;;7.10;2.63;;;18.80;95.40;;;;;;5006071;28;20041;-67
2023/07/12 06:19:13;;;;;;;6.47;2.50;;;18.60;94.60;;;;;;5007810;28;20050;-71
2023/07/12 06:21:38;;;;;;;5.38;2.50;;;18.80;94.20;;;;;;5013988;28;20431;-69
2023/07/12 06:24:06;;;;;;;6.82;2.50;;;19.00;93.50;;;;;;5002011;28;20071;-70
2023/07/12 06:26:32;;;;;;;7.05;1.88;;;19.10;92.90;;;;;;5003559;28;20044;-70
2023/07/12 06:28:59;;;;;;;4.50;1.83;;;19.30;92.30;;;;;;5007213;28;20459;-72
2023/07/12 06:31:25;;;;;;;3.05;1.73;;;19.60;92.60;;;;;;5005655;28;20403;-70
2023/07/12 06:33:50;;;;;;;3.88;1.77;;;19.60;90.90;;;;;;5007695;28;20092;-70
2023/07/12 06:36:16;;;;;;;3.30;1.50;;;19.60;91.20;;;;;;5001134;28;20026;-69
2023/07/12 06:38:42;;;;;;;3.13;1.60;;;19.70;90.80;;;;;;5002221;28;20040;-69
2023/07/12 06:41:08;;;;;;;4.13;2.05;;;19.70;91.90;;;;;;5012100;28;20088;-66
2023/07/12 06:43:33;;;;;;;2.92;1.77;;;19.50;91.00;;;;;;5007449;28;20532;-67
2023/07/12 06:45:59;;;;;;;3.50;1.60;;;19.50;91.50;;;;;;5008653;28;20033;-67
2023/07/12 06:48:24;;;;;;;3.42;1.42;;;19.60;90.80;;;;;;5007503;28;20439;-67
2023/07/12 06:50:50;;;;;;;3.70;1.70;;;19.50;90.40;;;;;;5011414;28;20042;-67
2023/07/12 06:53:15;;;;;;;3.55;1.55;;;19.50;89.40;;;;;;4996964;28;20033;-69
2023/07/12 06:55:43;;;;;;;6.63;2.33;;;19.60;89.50;;;;;;5010171;28;20308;-67
2023/07/12 06:58:08;;;;;;;3.08;1.45;;;19.40;89.00;;;;;;5007527;28;20482;-68
2023/07/12 07:00:34;;;;;;;3.63;1.65;;;19.40;89.30;;;;;;5004753;28;20152;-69
2023/07/12 07:02:59;;;;;;;4.72;1.73;;;19.40;89.10;;;;;;5031275;28;20029;-67
2023/07/12 07:05:25;;;;;;;4.57;1.30;;;19.40;89.00;;;;;;5013635;28;20038;-67
2023/07/12 07:07:50;;;;;;;3.83;1.60;;;19.10;88.00;;;;;;5007014;28;20038;-67
2023/07/12 07:10:16;;;;;;;2.88;1.23;;;19.10;88.60;;;;;;5009222;28;20041;-67
2023/07/12 07:12:41;;;;;;;3.45;1.83;;;19.00;89.00;;;;;;5014067;28;20044;-67
2023/07/12 07:15:07;;;;;;;3.65;1.40;;;19.30;89.10;;;;;;5012529;28;20096;-68
2023/07/12 07:17:33;;;;;;;2.60;1.42;;;19.40;88.20;;;;;;5008060;28;20018;-68
2023/07/12 07:19:58;;;;;;;4.30;2.00;;;19.60;87.80;;;;;;5006174;28;20493;-70
2023/07/12 07:22:24;;;;;;;5.35;1.45;;;20.00;87.40;;;;;;5013788;28;20092;-67
2023/07/12 07:24:49;;;;;;;3.08;1.55;;;19.70;86.20;;;;;;5006959;28;20026;-67
2023/07/12 07:27:15;;;;;;;3.88;1.42;;;20.00;85.40;;;;;;5007461;28;20037;-66
2023/07/12 07:29:40;;;;;;;4.53;1.48;;;20.10;84.30;;;;;;5011094;28;20037;-68
2023/07/12 07:32:06;;;;;;;3.33;1.40;;;20.00;84.30;;;;;;5016638;28;20120;-68
2023/07/12 07:34:32;;;;;;;4.55;1.40;;;20.10;83.00;;;;;;5006911;28;20074;-67
2023/07/12 07:36:58;;;;;;;4.45;1.65;;;19.80;84.00;;;;;;5006198;28;20033;-66
2023/07/12 07:39:24;;;;;;;3.67;1.83;;;19.70;84.50;;;;;;4997925;28;20374;-67
2023/07/12 07:41:49;;;;;;;3.53;1.50;;;19.70;85.10;;;;;;5007999;28;20030;-67
2023/07/12 07:44:14;;;;;;;3.25;1.48;;;20.00;83.10;;;;;;5002993;28;20030;-69
2023/07/12 07:46:40;;;;;;;4.88;1.70;;;20.20;83.00;;;;;;4998986;28;20030;-67
2023/07/12 07:49:05;;;;;;;5.60;1.70;;;20.40;81.90;;;;;;5007552;28;20410;-68
2023/07/12 07:51:34;;;;;;;5.53;1.83;;;20.20;82.50;;;;;;5007575;28;20036;-68
2023/07/12 07:53:59;;;;;;;3.17;1.80;;;20.50;82.40;;;;;;5006139;28;20057;-67
2023/07/12 07:56:27;;;;;;;3.63;1.83;;;20.20;81.70;;;;;;5005018;28;20065;-67
2023/07/12 07:58:52;;;;;;;5.97;1.70;;;20.20;82.20;;;;;;5003576;28;20086;-67
2023/07/12 08:01:17;;;;;;;3.45;1.55;;;20.20;81.60;;;;;;5005589;28;20038;-68
2023/07/12 08:03:43;;;;;;;4.80;1.67;;;20.50;81.00;;;;;;5006411;28;20041;-68
2023/07/12 08:06:08;;;;;;;3.63;1.25;;;20.70;80.80;;;;;;5004382;28;20385;-67
2023/07/12 08:08:34;;;;;;;2.42;1.27;;;20.90;81.10;;;;;;5003843;28;20058;-67
2023/07/12 08:11:04;;;;;;;6.68;1.63;;;21.10;79.20;;;;;;5011292;28;20453;-67
2023/07/12 08:13:29;;;;;;;6.63;1.77;;;21.20;79.30;;;;;;5012453;28;20381;-68
2023/07/12 08:15:56;;;;;;;4.57;1.52;;;21.10;78.00;;;;;;5007219;28;20054;-66
2023/07/12 08:18:22;;;;;;;2.85;1.40;;;21.00;77.20;;;;;;5004779;28;20052;-73
2023/07/12 08:20:47;;;;;;;3.72;1.40;;;21.30;77.20;;;;;;5011690;28;20021;-71
2023/07/12 08:23:13;;;;;;;3.05;0.95;;;21.40;75.80;;;;;;5017259;28;20029;-69
2023/07/12 08:25:38;;;;;;;4.45;1.45;;;21.10;75.20;;;;;;5008242;28;20458;-71
2023/07/12 08:28:04;;;;;;;4.07;1.73;;;20.90;75.60;;;;;;5008990;28;20108;-68
2023/07/12 08:30:29;;;;;;;6.43;1.48;;;20.90;77.70;;;;;;4998743;28;20069;-67
2023/07/12 08:32:55;;;;;;;2.83;1.30;;;20.70;78.40;;;;;;5005360;28;20693;-67
2023/07/12 08:35:20;;;;;;;4.43;1.48;;;20.70;78.90;;;;;;5002494;28;20038;-68
2023/07/12 08:37:46;;;;;;;4.80;1.40;;;21.10;77.80;;;;;;4999526;28;20116;-69
2023/07/12 08:40:14;;;;;;;5.72;1.88;;;21.30;77.10;;;;;;5002810;28;20032;-67
2023/07/12 08:42:41;;;;;;;2.90;1.48;;;21.10;77.40;;;;;;4996604;28;20038;-65
2023/07/12 08:45:28;;;;;;;3.22;1.17;;;20.70;77.60;;;;;;5008788;28;20038;-67
2023/07/12 08:48:00;;;;;;;4.45;1.38;;;20.80;77.60;;;;;;4998579;28;20125;-67
2023/07/12 08:50:43;;;;;;;7.40;1.60;;;21.50;74.80;;;;;;4988341;28;20173;-67
2023/07/12 08:53:30;;;;;;;4.53;1.50;;;21.50;74.80;;;;;;5001789;28;20448;-67
2023/07/12 08:55:57;;;;;;;4.95;1.27;;;21.20;75.30;;;;;;5002686;28;20057;-68
2023/07/12 08:58:24;;;;;;;5.43;1.40;;;21.00;76.30;;;;;;5015708;28;20040;-67
2023/07/12 09:01:07;;;;;;;5.68;1.88;;;21.00;76.20;;;;;;5009284;28;20029;-67
2023/07/12 09:03:32;;;;;;;6.07;1.75;;;20.70;76.10;;;;;;5005663;28;20037;-67
2023/07/12 09:05:58;;;;;;;7.55;1.67;;;20.60;76.60;;;;;;5002193;28;20056;-68
2023/07/12 09:08:37;;;;;;;6.88;2.00;;;20.80;77.10;;;;;;5007027;28;20089;-68
2023/07/12 09:11:03;;;;;;;6.07;1.80;;;21.40;75.50;;;;;;5005955;28;20033;-67
2023/07/12 09:13:37;;;;;;;5.47;1.95;;;22.00;73.80;;;;;;5001342;28;20531;-67
2023/07/12 09:16:03;;;;;;;3.35;1.70;;;22.20;73.50;;;;;;5006922;28;20227;-68
2023/07/12 09:18:38;;;;;;;7.30;1.70;;;22.70;74.20;;;;;;5013029;28;20046;-67
2023/07/12 09:21:15;;;;;;;7.28;1.63;;;22.60;71.60;;;;;;5003398;28;20038;-67
2023/07/12 09:23:43;;;;;;;6.68;1.92;;;22.00;71.40;;;;;;5002393;28;20113;-67
2023/07/12 09:26:25;;;;;;;7.88;1.90;;;22.00;73.00;;;;;;5004429;28;20026;-68
2023/07/12 09:28:58;;;;;;;6.00;1.80;;;22.00;72.90;;;;;;4999296;28;20046;-67
2023/07/12 09:31:29;;;;;;;7.65;2.13;;;22.20;73.50;;;;;;4994517;28;20024;-68
2023/07/12 09:34:00;;;;;;;5.63;2.00;;;22.00;73.40;;;;;;5002289;28;20144;-67
2023/07/12 09:36:26;;;;;;;5.75;1.60;;;22.20;73.60;;;;;;4996520;28;20043;-67
2023/07/12 09:38:58;;;;;;;7.25;1.60;;;21.70;73.40;;;;;;5013139;28;20108;-67
2023/07/12 09:41:24;;;;;;;4.80;1.80;;;21.60;73.50;;;;;;5014468;28;20060;-67
2023/07/12 09:43:54;;;;;;;5.93;2.17;;;21.90;73.90;;;;;;5013396;28;20057;-67
2023/07/12 09:46:29;;;;;;;5.07;1.67;;;21.70;73.60;;;;;;5007636;28;20091;-67
2023/07/12 09:49:12;;;;;;;6.22;1.83;;;22.20;73.60;;;;;;5009476;28;20089;-67
2023/07/12 09:51:50;;;;;;;5.40;1.95;;;22.50;73.80;;;;;;5001706;28;20026;-67
2023/07/12 09:54:39;;;;;;;6.38;1.50;;;23.30;71.30;;;;;;5022625;28;20045;-66
2023/07/12 09:57:38;;;;;;;6.80;1.92;;;23.10;71.80;;;;;;5000986;28;20085;-68
2023/07/12 10:00:11;;;;;;;6.90;1.67;;;22.90;69.80;;;;;;5006901;28;20037;-67
2023/07/12 10:03:13;;;;;;;6.03;1.77;;;22.50;72.50;;;;;;5014143;28;20033;-68
2023/07/12 10:05:46;;;;;;;7.70;1.70;;;22.30;72.00;;;;;;5004538;28;20458;-67
2023/07/12 10:08:14;;;;;;;5.57;1.52;;;22.50;72.40;;;;;;5001517;28;20135;-67
2023/07/12 10:11:07;;;;;;;6.78;2.10;;;22.20;71.90;;;;;;5003955;28;20044;-67
2023/07/12 10:13:42;;;;;;;7.40;2.00;;;22.40;71.20;;;;;;5008092;28;20350;-67
2023/07/12 10:16:18;;;;;;;5.68;1.83;;;22.70;72.10;;;;;;5013388;28;20045;-67
2023/07/12 10:18:45;;;;;;;5.03;1.60;;;22.90;67.50;;;;;;5019753;28;20108;-67
2023/07/12 10:21:19;;;;;;;5.00;1.63;;;23.50;67.30;;;;;;5007645;28;20366;-67
2023/07/12 10:23:55;;;;;;;6.28;2.13;;;23.50;65.50;;;;;;5018853;28;20522;-67
2023/07/12 10:26:20;;;;;;;6.47;1.88;;;23.60;64.60;;;;;;5003894;28;20026;-68
2023/07/12 10:28:55;;;;;;;7.72;2.00;;;23.50;64.60;;;;;;5002946;28;20029;-67
2023/07/12 10:31:36;;;;;;;7.13;1.80;;;23.70;65.90;;;;;;5006923;28;20057;-70
2023/07/12 10:34:20;;;;;;;6.63;1.88;;;24.00;65.70;;;;;;5008357;28;20308;-68
2023/07/12 10:36:50;;;;;;;4.88;1.40;;;24.40;63.50;;;;;;5001791;28;20026;-67
2023/07/12 10:39:15;;;;;;;4.15;1.67;;;23.80;65.30;;;;;;5008257;28;20448;-67
2023/07/12 10:41:47;;;;;;;4.70;2.00;;;22.90;66.90;;;;;;5008538;28;20041;-66
2023/07/12 10:44:23;;;;;;;7.82;1.60;;;22.70;68.00;;;;;;5008653;28;20077;-67
2023/07/12 10:46:56;;;;;;;7.35;1.92;;;22.70;67.50;;;;;;5010756;28;20462;-66
2023/07/12 10:49:52;;;;;;;5.05;1.90;;;23.00;65.80;;;;;;5015444;28;20042;-67
2023/07/12 10:52:32;;;;;;;3.83;1.65;;;23.70;64.90;;;;;;4997936;28;20021;-67
2023/07/12 10:55:04;;;;;;;6.25;2.03;;;24.00;62.90;;;;;;5003394;28;20147;-67
2023/07/12 10:57:46;;;;;;;6.82;2.13;;;24.50;63.70;;;;;;5007637;28;20402;-67
2023/07/12 11:00:27;;;;;;;8.00;2.20;;;24.50;61.80;;;;;;5008014;28;20442;-67
2023/07/12 11:03:32;;;;;;;6.60;2.08;;;24.50;62.00;;;;;;5018946;28;20346;-67
2023/07/12 11:06:04;;;;;;;4.88;1.50;;;24.30;61.40;;;;;;4997570;28;20045;-66
2023/07/12 11:08:30;;;;;;;7.07;2.22;;;24.40;60.70;;;;;;5005805;28;20045;-66
2023/07/12 11:10:59;;;;;;;5.13;1.67;;;24.40;60.10;;;;;;5008202;28;20164;-67
2023/07/12 11:13:32;;;;;;;6.15;1.80;;;24.00;61.30;;;;;;5008712;28;20405;-66
2023/07/12 11:16:05;;;;;;;5.38;1.63;;;23.50;64.40;;;;;;5005129;28;20022;-66
2023/07/12 11:18:36;;;;;;;3.95;1.50;;;22.80;64.00;;;;;;5000143;28;20042;-66
2023/07/12 11:21:24;;;;;;;4.85;1.70;;;23.00;63.80;;;;;;5006970;28;20599;-66
2023/07/12 11:23:50;;;;;;;3.88;1.50;;;23.70;61.80;;;;;;5007559;28;20095;-66
2023/07/12 11:26:32;;;;;;;5.13;1.58;;;24.30;60.60;;;;;;5007205;28;20101;-66
2023/07/12 11:29:24;;;;;;;4.95;1.55;;;24.20;61.80;;;;;;5003411;28;20018;-66
2023/07/12 11:32:05;;;;;;;3.75;1.27;;;24.20;59.70;;;;;;5007115;28;20080;-67
2023/07/12 11:34:31;;;;;;;5.13;1.85;;;24.20;61.40;;;;;;5006501;28;20166;-67
2023/07/12 11:36:59;;;;;;;6.45;1.98;;;24.40;62.10;;;;;;5004570;28;20353;-67
2023/07/12 11:39:27;;;;;;;6.40;1.83;;;23.90;62.50;;;;;;5005937;28;20030;-67
2023/07/12 11:41:58;;;;;;;2.40;1.35;;;24.20;62.80;;;;;;5014099;28;20561;-67
2023/07/12 11:44:25;;;;;;;4.10;1.58;;;24.50;61.90;;;;;;5009060;28;20109;-66
2023/07/12 11:46:52;;;;;;;4.93;1.52;;;25.00;57.70;;;;;;5002546;28;20106;-67
2023/07/12 11:49:20;;;;;;;3.85;1.70;;;25.00;57.10;;;;;;5000985;28;20137;-68
2023/07/12 11:51:51;;;;;;;5.07;1.60;;;25.00;58.70;;;;;;5002625;28;20046;-67
2023/07/12 11:54:33;;;;;;;4.47;1.50;;;25.90;58.00;;;;;;5001619;28;20185;-67
2023/07/12 11:56:59;;;;;;;5.75;1.65;;;25.60;55.80;;;;;;5000424;28;20428;-67
2023/07/12 11:59:29;;;;;;;3.47;1.40;;;25.10;57.20;;;;;;5003170;28;20057;-67
2023/07/12 12:01:55;;;;;;;5.40;1.73;;;24.60;58.40;;;;;;5003838;28;20030;-67
2023/07/12 12:04:23;;;;;;;6.53;1.60;;;24.70;58.80;;;;;;5006391;28;20112;-67
2023/07/12 12:06:56;;;;;;;3.30;1.35;;;24.80;58.30;;;;;;5007847;28;20092;-67
2023/07/12 12:09:32;;;;;;;5.80;1.50;;;25.70;55.50;;;;;;5002030;28;20042;-68
2023/07/12 12:11:59;;;;;;;5.57;1.60;;;25.50;54.20;;;;;;4997040;28;20323;-67
2023/07/12 12:14:28;;;;;;;5.18;1.52;;;25.80;52.80;;;;;;5010525;28;20092;-66
2023/07/12 12:16:55;;;;;;;4.03;1.42;;;26.00;52.50;;;;;;5002390;28;20026;-68
2023/07/12 12:19:26;;;;;;;4.47;1.42;;;26.40;54.30;;;;;;4996794;28;20045;-66
2023/07/12 12:22:03;;;;;;;4.95;1.80;;;25.20;54.70;;;;;;4996581;28;20359;-67
2023/07/12 12:24:46;;;;;;;4.85;1.70;;;25.80;54.80;;;;;;4998858;28;20122;-66
2023/07/12 12:27:26;;;;;;;6.07;1.50;;;25.90;55.70;;;;;;5007780;28;20369;-68
2023/07/12 12:29:51;;;;;;;4.47;1.55;;;25.70;55.40;;;;;;5004941;28;20095;-67
2023/07/12 12:32:20;;;;;;;6.28;1.65;;;26.40;54.30;;;;;;5006611;28;20117;-67
2023/07/12 12:34:52;;;;;;;6.90;1.63;;;26.60;52.50;;;;;;5005214;28;20066;-67
2023/07/12 12:37:21;;;;;;;5.03;1.67;;;26.60;53.00;;;;;;5004306;28;20021;-67
2023/07/12 12:39:58;;;;;;;5.55;1.48;;;26.80;52.40;;;;;;5005275;28;20029;-68
2023/07/12 12:42:25;;;;;;;5.88;1.60;;;27.20;51.80;;;;;;4998791;28;20124;-68
2023/07/12 12:44:51;;;;;;;3.83;1.52;;;27.20;53.20;;;;;;4990438;28;20056;-67
2023/07/12 12:47:28;;;;;;;4.78;1.30;;;26.90;51.50;;;;;;4999941;28;20034;-67
2023/07/12 12:49:54;;;;;;;4.05;1.48;;;27.10;50.30;;;;;;4990948;28;20103;-68
2023/07/12 12:52:32;;;;;;;6.70;1.50;;;26.40;51.00;;;;;;4992970;28;20060;-68
2023/07/12 12:55:10;;;;;;;5.72;1.50;;;27.30;50.30;;;;;;5004401;28;20155;-67